createdAt,value
2022-08-14T00:02:27.271Z,99079.91
2022-08-14T00:04:55.737Z,99083.44
2022-08-14T00:07:23.475Z,99070.84
2022-08-14T00:10:01.404Z,99070.03
2022-08-14T00:12:42.998Z,99070.97
2022-08-14T00:15:24.661Z,99068.66
2022-08-14T00:17:53.805Z,99063.37
2022-08-14T00:20:30.621Z,99066.31
2022-08-14T00:23:12.081Z,99071.84
2022-08-14T00:25:43.397Z,99067.25
2022-08-14T00:28:26.547Z,99066.09
2022-08-14T00:31:00.202Z,99068.91
2022-08-14T00:33:50.911Z,99059.72
2022-08-14T00:36:37.372Z,99057.34
2022-08-14T00:39:04.702Z,99063.81
2022-08-14T00:41:34.353Z,99066.06
2022-08-14T00:44:01.761Z,99055.13
2022-08-14T00:46:33.017Z,99056.78
2022-08-14T00:49:02.115Z,99059.59
2022-08-14T00:51:36.724Z,99053.59
2022-08-14T00:54:16.716Z,99053.69
2022-08-14T00:56:55.478Z,99054.31
2022-08-14T00:59:28.587Z,99050.38
2022-08-14T01:02:00.073Z,99049.84
2022-08-14T01:04:38.383Z,99048.75
2022-08-14T01:07:20.874Z,99051.81
2022-08-14T01:10:01.717Z,99062.28
2022-08-14T01:12:30.510Z,99052.19
2022-08-14T01:14:59.399Z,99054.97
2022-08-14T01:17:49.899Z,99058.16
2022-08-14T01:20:40.014Z,99056.87
2022-08-14T01:23:15.853Z,99065.16
2022-08-14T01:25:48.129Z,99062.16
2022-08-14T01:28:47.289Z,99057.19
2022-08-14T01:31:06.826Z,99057.41
2022-08-14T01:34:00.109Z,99057.41
2022-08-14T01:36:28.102Z,99063.56
2022-08-14T01:38:58.877Z,99066.75
2022-08-14T01:41:30.112Z,99073.09
2022-08-14T01:44:01.573Z,99071.19
2022-08-14T01:46:36.622Z,99063.56
2022-08-14T01:49:08.477Z,99070.03
2022-08-14T01:51:39.385Z,99070.72
2022-08-14T01:54:14.271Z,99073.19
2022-08-14T01:56:42.927Z,99067.09
2022-08-14T01:59:18.338Z,99065.09
2022-08-14T02:01:57.827Z,99062.72
2022-08-14T02:04:55.612Z,99065.78
2022-08-14T02:07:44.874Z,99064.31
2022-08-14T02:10:13.136Z,99069.44
2022-08-14T02:12:48.912Z,99072.13
2022-08-14T02:15:22.569Z,99063.06
2022-08-14T02:17:50.736Z,99078.59
2022-08-14T02:20:23.624Z,99068.09
2022-08-14T02:22:54.820Z,99068.19
2022-08-14T02:25:23.572Z,99070.84
2022-08-14T02:28:22.427Z,99067.38
2022-08-14T02:30:44.728Z,99068.34
2022-08-14T02:33:12.927Z,99069.41
2022-08-14T02:35:43.442Z,99061.88
2022-08-14T02:38:11.933Z,99068.09
2022-08-14T02:41:00.567Z,99063.50
2022-08-14T02:43:36.502Z,99076.41
2022-08-14T02:46:10.166Z,99065.09
2022-08-14T02:49:01.726Z,99069.78
2022-08-14T02:51:30.394Z,99062.47
2022-08-14T02:53:59.092Z,99070.87
2022-08-14T02:56:29.949Z,99074.53
2022-08-14T02:59:01.897Z,99075.78
2022-08-14T03:01:43.917Z,99076.72
2022-08-14T03:04:20.372Z,99072.97
2022-08-14T03:07:06.454Z,99076.88
2022-08-14T03:09:41.961Z,99075.56
2022-08-14T03:12:31.169Z,99078.91
2022-08-14T03:15:16.300Z,99073.47
2022-08-14T03:17:57.875Z,99076.91
2022-08-14T03:20:30.363Z,99078.19
2022-08-14T03:23:03.097Z,99082.91
2022-08-14T03:25:34.124Z,99076.13
2022-08-14T03:28:07.502Z,99081.34
2022-08-14T03:30:38.819Z,99082.03
2022-08-14T03:33:12.609Z,99074.66
2022-08-14T03:36:00.112Z,99082.19
2022-08-14T03:39:12.833Z,99083.72
2022-08-14T03:41:25.357Z,99077.56
2022-08-14T03:45:17.818Z,99078.25
2022-08-14T03:46:54.437Z,99079.31
2022-08-14T03:49:28.905Z,99080.06
2022-08-14T03:52:01.102Z,99075.69
2022-08-14T03:54:29.718Z,99080.94
2022-08-14T03:57:02.514Z,99074.97
2022-08-14T03:59:35.430Z,99080.78
2022-08-14T04:02:04.791Z,99080.41
2022-08-14T04:04:52.726Z,99075.44
2022-08-14T04:07:20.223Z,99078.87
2022-08-14T04:09:49.793Z,99077.88
2022-08-14T04:12:26.587Z,99082.16
2022-08-14T04:14:54.345Z,99083.81
2022-08-14T04:17:22.406Z,99087.59
2022-08-14T04:19:50.363Z,99098.38
2022-08-14T04:22:18.456Z,99100.38
2022-08-14T04:24:49.799Z,99094.00
2022-08-14T04:27:18.635Z,99088.53
2022-08-14T04:29:46.078Z,99093.66
2022-08-14T04:33:02.567Z,99093.09
2022-08-14T04:35:07.762Z,99095.28
2022-08-14T04:37:56.970Z,99096.72
2022-08-14T04:40:43.008Z,99094.50
2022-08-14T04:43:39.252Z,99102.34
2022-08-14T04:46:11.873Z,99103.94
2022-08-14T04:48:59.868Z,99104.19
2022-08-14T04:51:28.215Z,99095.28
2022-08-14T04:53:57.737Z,99096.19
2022-08-14T04:56:31.735Z,99092.91
2022-08-14T04:59:10.147Z,99091.12
2022-08-14T05:01:48.733Z,99097.66
2022-08-14T05:04:20.933Z,99100.25
2022-08-14T05:06:53.542Z,99101.06
2022-08-14T05:09:29.121Z,99102.97
2022-08-14T05:13:11.327Z,99104.38
2022-08-14T05:14:55.111Z,99103.31
2022-08-14T05:17:32.149Z,99097.19
2022-08-14T05:21:54.945Z,99104.94
2022-08-14T05:23:01.452Z,99096.31
2022-08-14T05:25:31.072Z,99102.09
2022-08-14T05:28:16.419Z,99099.16
2022-08-14T05:30:44.572Z,99103.50
2022-08-14T05:33:13.325Z,99102.59
2022-08-14T05:35:42.577Z,99101.53
2022-08-14T05:38:22.286Z,99103.63
2022-08-14T05:41:00.699Z,99108.53
2022-08-14T05:43:40.697Z,99102.53
2022-08-14T05:46:15.050Z,99111.88
2022-08-14T05:48:43.741Z,99110.41
2022-08-14T05:51:12.275Z,99105.97
2022-08-14T05:53:42.244Z,99109.87
2022-08-14T05:56:10.181Z,99111.97
2022-08-14T05:58:41.446Z,99114.84
2022-08-14T06:01:10.289Z,99110.50
2022-08-14T06:03:40.224Z,99108.87
2022-08-14T06:06:08.012Z,99110.75
2022-08-14T06:08:41.430Z,99111.69
2022-08-14T06:11:10.143Z,99111.53
2022-08-14T06:13:45.170Z,99105.56
2022-08-14T06:16:18.018Z,99095.47
2022-08-14T06:18:52.411Z,99106.91
2022-08-14T06:21:22.634Z,99102.28
2022-08-14T06:23:50.649Z,99100.13
2022-08-14T06:26:21.221Z,99099.13
2022-08-14T06:28:52.500Z,99097.16
2022-08-14T06:31:21.088Z,99097.28
2022-08-14T06:35:03.055Z,99098.88
2022-08-14T06:36:39.415Z,99101.03
2022-08-14T06:39:10.302Z,99100.84
2022-08-14T06:41:58.060Z,99100.53
2022-08-14T06:44:33.174Z,99102.97
2022-08-14T06:47:03.061Z,99090.72
2022-08-14T06:49:42.760Z,99090.25
2022-08-14T06:52:16.822Z,99090.66
2022-08-14T06:54:45.630Z,99084.00
2022-08-14T06:57:13.848Z,99085.81
2022-08-14T06:59:43.104Z,99084.69
2022-08-14T07:02:29.548Z,99080.69
2022-08-14T07:05:21.013Z,99078.94
2022-08-14T07:07:51.615Z,99078.94
2022-08-14T07:10:24.834Z,99072.31
2022-08-14T07:13:02.078Z,99080.91
2022-08-14T07:15:34.022Z,99079.81
2022-08-14T07:18:03.698Z,99078.81
2022-08-14T07:20:36.418Z,99083.19
2022-08-14T07:23:09.211Z,99082.16
2022-08-14T07:25:40.184Z,99079.75
2022-08-14T07:28:21.305Z,99076.81
2022-08-14T07:31:04.224Z,99071.34
2022-08-14T07:33:50.272Z,99076.00
2022-08-14T07:36:27.290Z,99080.47
2022-08-14T07:39:02.929Z,99079.37
2022-08-14T07:41:35.777Z,99076.56
2022-08-14T07:44:29.022Z,99082.19
2022-08-14T07:46:51.725Z,99079.25
2022-08-14T07:49:19.995Z,99075.78
2022-08-14T07:51:49.246Z,99087.28
2022-08-14T07:54:23.171Z,99077.47
2022-08-14T07:57:00.092Z,99084.72
2022-08-14T07:59:41.308Z,99080.34
2022-08-14T08:02:19.651Z,99073.00
2022-08-14T08:04:54.259Z,99076.75
2022-08-14T08:07:30.827Z,99072.16
2022-08-14T08:10:02.076Z,99074.09
2022-08-14T08:12:32.154Z,99078.00
2022-08-14T08:15:03.004Z,99074.91
2022-08-14T08:17:39.203Z,99083.72
2022-08-14T08:20:21.093Z,99077.41
2022-08-14T08:22:55.787Z,99070.84
2022-08-14T08:25:25.790Z,99075.25
2022-08-14T08:28:08.947Z,99074.66
2022-08-14T08:30:57.788Z,99072.75
2022-08-14T08:33:37.358Z,99070.63
2022-08-14T08:36:12.575Z,99067.38
2022-08-14T08:39:16.919Z,99063.81
2022-08-14T08:41:43.272Z,99063.81
2022-08-14T08:44:17.449Z,99062.19
2022-08-14T08:47:05.565Z,99058.63
2022-08-14T08:49:48.130Z,99068.75
2022-08-14T08:52:25.278Z,99067.38
2022-08-14T08:54:56.569Z,99066.25
2022-08-14T08:57:24.629Z,99060.22
2022-08-14T08:59:55.032Z,99058.03
2022-08-14T09:02:22.869Z,99053.63
2022-08-14T09:05:02.092Z,99052.25
2022-08-14T09:07:31.175Z,99047.00
2022-08-14T09:10:00.770Z,99045.12
2022-08-14T09:12:31.367Z,99044.28
2022-08-14T09:15:02.447Z,99043.72
2022-08-14T09:17:30.286Z,99042.88
2022-08-14T09:20:01.985Z,99043.78
2022-08-14T09:22:36.042Z,99041.00
2022-08-14T09:25:07.335Z,99044.72
2022-08-14T09:27:38.086Z,99029.94
2022-08-14T09:30:31.525Z,99028.84
2022-08-14T09:33:12.557Z,99031.53
2022-08-14T09:36:04.760Z,99031.03
2022-08-14T09:38:59.279Z,99023.16
2022-08-14T09:42:17.776Z,99022.25
2022-08-14T09:45:08.834Z,99029.59
2022-08-14T09:47:54.202Z,99027.28
2022-08-14T09:50:33.831Z,99021.66
2022-08-14T09:53:04.513Z,99027.91
2022-08-14T09:55:42.591Z,99024.97
2022-08-14T09:58:19.204Z,99013.16
2022-08-14T10:00:57.590Z,99014.50
2022-08-14T10:03:34.618Z,99011.75
2022-08-14T10:06:14.156Z,99013.78
2022-08-14T10:08:51.299Z,99017.53
2022-08-14T10:11:34.999Z,99016.19
2022-08-14T10:14:21.151Z,99015.88
2022-08-14T10:17:08.711Z,99013.66
2022-08-14T10:19:48.007Z,99012.25
2022-08-14T10:23:12.708Z,99016.09
2022-08-14T10:25:15.381Z,99015.53
2022-08-14T10:27:51.101Z,99001.03
2022-08-14T10:30:35.173Z,99009.84
2022-08-14T10:33:03.200Z,99022.25
2022-08-14T10:35:40.718Z,99004.53
2022-08-14T10:38:34.822Z,99004.44
2022-08-14T10:41:18.623Z,99001.00
2022-08-14T10:44:21.559Z,99006.59
2022-08-14T10:47:37.914Z,99010.34
2022-08-14T10:49:59.691Z,99012.03
2022-08-14T10:52:34.664Z,99007.03
2022-08-14T10:55:09.736Z,99007.72
2022-08-14T10:57:52.556Z,99000.22
2022-08-14T11:00:30.327Z,98995.91
2022-08-14T11:03:19.690Z,99004.53
2022-08-14T11:05:55.892Z,98996.19
2022-08-14T11:08:34.147Z,98995.84
2022-08-14T11:11:05.629Z,98998.06
2022-08-14T11:13:34.527Z,98988.84
2022-08-14T11:16:02.935Z,98985.81
2022-08-14T11:18:32.246Z,98978.47
2022-08-14T11:21:08.370Z,98978.88
2022-08-14T11:23:41.164Z,98976.06
2022-08-14T11:26:17.518Z,98972.69
2022-08-14T11:28:49.644Z,98965.37
2022-08-14T11:31:20.666Z,98961.09
2022-08-14T11:33:53.198Z,98957.50
2022-08-14T11:36:23.904Z,98958.13
2022-08-14T11:39:02.939Z,98958.75
2022-08-14T11:41:41.428Z,98953.66
2022-08-14T11:44:17.768Z,98948.25
2022-08-14T11:47:06.885Z,98943.56
2022-08-14T11:49:35.185Z,98943.47
2022-08-14T11:52:02.917Z,98947.00
2022-08-14T11:54:34.655Z,98930.03
2022-08-14T11:57:04.791Z,98922.88
2022-08-14T11:59:33.971Z,98923.03
2022-08-14T12:03:00.906Z,98922.84
2022-08-14T12:05:04.591Z,98927.06
2022-08-14T12:07:37.057Z,98919.16
2022-08-14T12:10:25.525Z,98915.00
2022-08-14T12:12:56.443Z,98915.50
2022-08-14T12:15:35.940Z,98915.19
2022-08-14T12:18:04.643Z,98920.00
2022-08-14T12:20:36.818Z,98921.84
2022-08-14T12:23:08.583Z,98918.31
2022-08-14T12:25:36.831Z,98919.81
2022-08-14T12:28:27.435Z,98910.19
2022-08-14T12:30:59.742Z,98912.50
2022-08-14T12:33:33.758Z,98915.12
2022-08-14T12:36:06.348Z,98906.00
2022-08-14T12:38:38.483Z,98894.81
2022-08-14T12:41:20.829Z,98902.41
2022-08-14T12:43:51.891Z,98903.84
2022-08-14T12:46:28.852Z,98906.69
2022-08-14T12:49:04.300Z,98900.12
2022-08-14T12:51:32.736Z,98899.78
2022-08-14T12:54:00.979Z,98888.00
2022-08-14T12:56:34.136Z,98890.63
2022-08-14T12:59:04.732Z,98878.31
2022-08-14T13:02:03.089Z,98881.19
2022-08-14T13:04:22.707Z,98876.38
2022-08-14T13:06:51.777Z,98875.13
2022-08-14T13:09:19.863Z,98878.66
2022-08-14T13:11:58.864Z,98875.75
2022-08-14T13:14:40.759Z,98875.09
2022-08-14T13:17:10.946Z,98872.91
2022-08-14T13:19:40.698Z,98870.50
2022-08-14T13:22:10.183Z,98871.72
2022-08-14T13:24:48.124Z,98881.44
2022-08-14T13:27:16.109Z,98873.03
2022-08-14T13:29:47.376Z,98870.12
2022-08-14T13:32:16.264Z,98865.19
2022-08-14T13:34:46.059Z,98870.34
2022-08-14T13:37:17.822Z,98869.88
2022-08-14T13:39:56.612Z,98867.75
2022-08-14T13:42:30.577Z,98861.69
2022-08-14T13:45:02.119Z,98857.59
2022-08-14T13:47:33.175Z,98856.44
2022-08-14T13:50:04.520Z,98858.34
2022-08-14T13:52:55.487Z,98845.72
2022-08-14T13:55:25.751Z,98839.69
2022-08-14T13:58:04.107Z,98830.88
2022-08-14T14:00:53.150Z,98830.81
2022-08-14T14:03:24.505Z,98842.13
2022-08-14T14:05:54.996Z,98831.56
2022-08-14T14:08:46.001Z,98832.75
2022-08-14T14:11:14.147Z,98831.19
2022-08-14T14:13:45.972Z,98826.97
2022-08-14T14:16:26.582Z,98827.44
2022-08-14T14:19:08.883Z,98819.31
2022-08-14T14:21:40.793Z,98818.50
2022-08-14T14:24:15.062Z,98820.44
2022-08-14T14:26:48.062Z,98816.53
2022-08-14T14:29:24.190Z,98816.53
2022-08-14T14:31:54.349Z,98814.75
2022-08-14T14:34:29.703Z,98808.25
2022-08-14T14:37:04.514Z,98807.13
2022-08-14T14:39:37.725Z,98807.59
2022-08-14T14:42:31.809Z,98809.69
2022-08-14T14:45:15.541Z,98800.47
2022-08-14T14:47:45.536Z,98790.66
2022-08-14T14:50:14.549Z,98793.19
2022-08-14T14:52:44.598Z,98793.81
2022-08-14T14:55:13.513Z,98783.69
2022-08-14T14:57:51.868Z,98781.81
2022-08-14T15:00:22.416Z,98780.41
2022-08-14T15:02:52.427Z,98773.91
2022-08-14T15:05:21.463Z,98763.47
2022-08-14T15:07:51.242Z,98775.66
2022-08-14T15:10:27.344Z,98768.81
2022-08-14T15:13:04.339Z,98775.28
2022-08-14T15:15:37.449Z,98770.66
2022-08-14T15:18:14.934Z,98779.53
2022-08-14T15:20:57.554Z,98790.19
2022-08-14T15:23:43.548Z,98785.94
2022-08-14T15:26:30.946Z,98782.00
2022-08-14T15:29:02.092Z,98791.50
2022-08-14T15:31:37.525Z,98792.16
2022-08-14T15:34:45.605Z,98784.84
2022-08-14T15:37:02.273Z,98782.72
2022-08-14T15:39:33.628Z,98783.06
2022-08-14T15:42:14.668Z,98778.34
2022-08-14T15:44:58.457Z,98772.75
2022-08-14T15:47:30.710Z,98783.69
2022-08-14T15:50:00.646Z,98792.66
2022-08-14T15:52:37.317Z,98782.25
2022-08-14T15:55:13.033Z,98778.22
2022-08-14T15:58:02.163Z,98781.91
2022-08-14T16:00:52.754Z,98780.44
2022-08-14T16:03:25.327Z,98786.28
2022-08-14T16:06:02.818Z,98779.28
2022-08-14T16:08:30.840Z,98775.56
2022-08-14T16:11:04.346Z,98781.16
2022-08-14T16:13:41.500Z,98781.69
2022-08-14T16:16:47.379Z,98780.00
2022-08-14T16:19:10.273Z,98767.69
2022-08-14T16:22:02.708Z,98774.78
2022-08-14T16:24:33.409Z,98770.09
2022-08-14T16:27:03.501Z,98769.19
2022-08-14T16:29:35.751Z,98769.00
2022-08-14T16:32:32.100Z,98773.78
2022-08-14T16:34:54.912Z,98773.03
2022-08-14T16:40:12.952Z,98788.75
2022-08-14T16:40:25.497Z,98775.53
2022-08-14T16:43:03.998Z,98781.69
2022-08-14T16:45:31.853Z,98796.37
2022-08-14T16:48:01.114Z,98789.97
2022-08-14T16:50:40.402Z,98789.72
2022-08-14T16:53:17.971Z,98788.97
2022-08-14T16:55:53.592Z,98788.59
2022-08-14T16:58:30.298Z,98787.19
2022-08-14T17:01:16.362Z,98794.09
2022-08-14T17:04:04.551Z,98793.69
2022-08-14T17:06:36.734Z,98793.59
2022-08-14T17:09:06.453Z,98792.34
2022-08-14T17:11:34.349Z,98799.47
2022-08-14T17:14:10.137Z,98795.91
2022-08-14T17:16:38.330Z,98801.41
2022-08-14T17:19:11.582Z,98799.38
2022-08-14T17:21:47.121Z,98809.56
2022-08-14T17:24:51.456Z,98804.25
2022-08-14T17:27:08.001Z,98811.50
2022-08-14T17:29:44.539Z,98814.63
2022-08-14T17:35:16.621Z,98821.19
2022-08-14T17:37:46.357Z,98810.03
2022-08-14T17:40:19.607Z,98827.03
2022-08-14T17:42:51.857Z,98825.47
2022-08-14T17:45:47.722Z,98820.09
2022-08-14T17:49:15.445Z,98818.44
2022-08-14T17:51:24.118Z,98822.88
2022-08-14T17:54:03.045Z,98826.97
2022-08-14T17:56:32.944Z,98825.28
2022-08-14T17:59:03.904Z,98818.94
2022-08-14T18:01:36.302Z,98815.72
2022-08-14T18:04:25.188Z,98817.09
2022-08-14T18:06:58.686Z,98818.72
2022-08-14T18:09:40.475Z,98821.69
2022-08-14T18:12:32.894Z,98815.75
2022-08-14T18:15:16.161Z,98813.81
2022-08-14T18:17:50.513Z,98815.28
2022-08-14T18:21:42.983Z,98802.22
2022-08-14T18:23:13.842Z,98805.13
2022-08-14T18:25:47.534Z,98806.97
2022-08-14T18:28:18.310Z,98806.25
2022-08-14T18:31:22.700Z,98807.47
2022-08-14T18:33:59.271Z,98803.06
2022-08-14T18:36:46.541Z,98812.25
2022-08-14T18:39:28.279Z,98804.84
2022-08-14T18:42:23.524Z,98807.28
2022-08-14T18:44:52.552Z,98810.25
2022-08-14T18:47:22.324Z,98802.13
2022-08-14T18:49:54.309Z,98803.00
2022-08-14T18:52:38.433Z,98802.50
2022-08-14T18:55:16.205Z,98807.88
2022-08-14T18:58:27.761Z,98810.75
2022-08-14T19:00:58.706Z,98803.59
2022-08-14T19:03:37.148Z,98803.87
2022-08-14T19:06:08.201Z,98803.38
2022-08-14T19:08:45.506Z,98810.44
2022-08-14T19:11:31.958Z,98809.09
2022-08-14T19:14:04.641Z,98813.22
2022-08-14T19:16:42.791Z,98812.31
2022-08-14T19:19:17.229Z,98812.06
2022-08-14T19:21:57.353Z,98810.94
2022-08-14T19:24:34.110Z,98813.75
2022-08-14T19:27:23.206Z,98812.37
2022-08-14T19:30:19.245Z,98810.50
2022-08-14T19:32:53.153Z,98812.09
2022-08-14T19:35:49.468Z,98819.87
2022-08-14T19:38:52.230Z,98816.78
2022-08-14T19:41:34.583Z,98813.84
2022-08-14T19:44:19.386Z,98815.00
2022-08-14T19:47:02.488Z,98815.25
2022-08-14T19:50:08.709Z,98809.25
2022-08-14T19:52:37.138Z,98809.78
2022-08-14T19:55:20.723Z,98812.00
2022-08-14T19:58:03.922Z,98812.53
2022-08-14T20:00:33.128Z,98818.16
2022-08-14T20:03:11.887Z,98813.50
2022-08-14T20:05:45.802Z,98808.06
2022-08-14T20:10:59.135Z,98809.34
2022-08-14T20:11:44.569Z,98810.38
2022-08-14T20:14:10.184Z,98814.09
2022-08-14T20:16:41.392Z,98814.19
2022-08-14T20:19:12.070Z,98811.06
2022-08-14T20:22:00.792Z,98810.63
2022-08-14T20:24:40.552Z,98819.59
2022-08-14T20:27:39.555Z,98816.91
2022-08-14T20:30:33.501Z,98809.38
2022-08-14T20:33:10.592Z,98804.16
2022-08-14T20:35:39.602Z,98805.56
2022-08-14T20:38:29.586Z,98811.50
2022-08-14T20:41:09.397Z,98812.00
2022-08-14T20:44:00.975Z,98818.75
2022-08-14T20:46:38.811Z,98810.59
2022-08-14T20:49:16.192Z,98807.56
2022-08-14T20:51:58.487Z,98809.69
2022-08-14T20:54:50.841Z,98817.13
2022-08-14T20:57:19.068Z,98811.75
2022-08-14T20:59:53.636Z,98814.19
2022-08-14T21:02:46.480Z,98819.09
2022-08-14T21:05:22.527Z,98821.81
2022-08-14T21:08:08.207Z,98819.59
2022-08-14T21:10:44.419Z,98815.72
2022-08-14T21:13:27.916Z,98823.38
2022-08-14T21:16:32.972Z,98831.44
2022-08-14T21:19:01.889Z,98832.53
2022-08-14T21:21:41.595Z,98833.84
2022-08-14T21:24:38.602Z,98835.41
2022-08-14T21:27:12.686Z,98835.69
2022-08-14T21:29:55.043Z,98836.56
2022-08-14T21:32:36.605Z,98835.63
2022-08-14T21:35:19.609Z,98838.34
2022-08-14T21:37:52.579Z,98837.88
2022-08-14T21:40:41.892Z,98829.38
2022-08-14T21:43:18.348Z,98837.44
2022-08-14T21:45:54.093Z,98838.12
2022-08-14T21:48:29.771Z,98827.53
2022-08-14T21:51:01.714Z,98829.75
2022-08-14T21:53:59.260Z,98834.37
2022-08-14T21:56:37.206Z,98836.88
2022-08-14T21:59:17.890Z,98831.34
2022-08-14T22:02:00.460Z,98832.66
2022-08-14T22:04:40.708Z,98833.59
2022-08-14T22:07:16.857Z,98833.63
2022-08-14T22:09:55.311Z,98832.47
2022-08-14T22:12:57.990Z,98823.97
2022-08-14T22:15:14.651Z,98829.41
2022-08-14T22:17:44.342Z,98823.94
2022-08-14T22:20:16.286Z,98826.56
2022-08-14T22:22:44.680Z,98827.47
2022-08-14T22:25:17.509Z,98826.97
2022-08-14T22:27:55.324Z,98823.31
2022-08-14T22:30:24.750Z,98822.56
2022-08-14T22:32:57.820Z,98820.66
2022-08-14T22:35:26.798Z,98815.81
2022-08-14T22:38:36.384Z,98814.03
2022-08-14T22:41:05.609Z,98816.69
2022-08-14T22:43:32.785Z,98814.53
2022-08-14T22:46:06.307Z,98810.91
2022-08-14T22:48:43.158Z,98811.53
2022-08-14T22:51:17.668Z,98815.06
2022-08-14T22:53:48.381Z,98811.00
2022-08-14T22:56:20.376Z,98805.06
2022-08-14T22:58:53.890Z,98807.31
2022-08-14T23:01:56.182Z,98809.56
2022-08-14T23:04:35.096Z,98802.75
2022-08-14T23:07:21.893Z,98804.84
2022-08-14T23:09:56.810Z,98810.75
2022-08-14T23:12:31.589Z,98805.37
2022-08-14T23:15:00.259Z,98809.03
2022-08-14T23:17:39.370Z,98798.69
2022-08-14T23:20:18.855Z,98804.66
2022-08-14T23:22:53.188Z,98800.97
2022-08-14T23:25:56.629Z,98803.13
2022-08-14T23:28:32.668Z,98795.72
2022-08-14T23:31:05.921Z,98794.91
2022-08-14T23:33:46.251Z,98793.91
2022-08-14T23:36:31.536Z,98787.69
2022-08-14T23:39:07.221Z,98785.56
2022-08-14T23:41:46.400Z,98781.69
2022-08-14T23:44:22.245Z,98776.66
2022-08-14T23:46:52.593Z,98784.50
2022-08-14T23:49:25.468Z,98785.19
2022-08-14T23:52:49.693Z,98785.56
2022-08-14T23:54:48.646Z,98781.97
2022-08-14T23:57:19.131Z,98791.94
2022-08-14T23:59:54.875Z,98776.25
